sensor_id;sensor_type;location;lat;lon;timestamp;P1;durP1;ratioP1;P2;durP2;ratioP2
3131;SDS011;62090;52.330;9.104;2023-04-25T00:01:48;17.80;;;6.47;;
3131;SDS011;62090;52.330;9.104;2023-04-25T00:04:19;17.40;;;6.23;;
3131;SDS011;62090;52.330;9.104;2023-04-25T00:06:51;14.57;;;6.67;;
3131;SDS011;62090;52.330;9.104;2023-04-25T00:09:22;20.27;;;7.10;;
3131;SDS011;62090;52.330;9.104;2023-04-25T00:11:52;18.17;;;6.80;;
3131;SDS011;62090;52.330;9.104;2023-04-25T00:14:22;17.27;;;6.27;;
3131;SDS011;62090;52.330;9.104;2023-04-25T00:16:51;18.20;;;7.10;;
3131;SDS011;62090;52.330;9.104;2023-04-25T00:19:21;12.93;;;5.93;;
3131;SDS011;62090;52.330;9.104;2023-04-25T00:21:55;19.47;;;6.50;;
3131;SDS011;62090;52.330;9.104;2023-04-25T00:24:25;24.60;;;7.20;;
3131;SDS011;62090;52.330;9.104;2023-04-25T00:26:55;23.70;;;6.80;;
3131;SDS011;62090;52.330;9.104;2023-04-25T00:29:25;18.33;;;6.40;;
3131;SDS011;62090;52.330;9.104;2023-04-25T00:31:55;17.30;;;6.80;;
3131;SDS011;62090;52.330;9.104;2023-04-25T00:34:25;24.80;;;7.00;;
3131;SDS011;62090;52.330;9.104;2023-04-25T00:36:57;28.00;;;6.70;;
3131;SDS011;62090;52.330;9.104;2023-04-25T00:39:28;19.13;;;7.53;;
3131;SDS011;62090;52.330;9.104;2023-04-25T00:41:58;19.20;;;6.40;;
3131;SDS011;62090;52.330;9.104;2023-04-25T00:44:29;29.50;;;7.40;;
3131;SDS011;62090;52.330;9.104;2023-04-25T00:47:00;18.83;;;6.70;;
3131;SDS011;62090;52.330;9.104;2023-04-25T00:49:31;17.73;;;5.90;;
3131;SDS011;62090;52.330;9.104;2023-04-25T00:52:04;15.17;;;7.20;;
3131;SDS011;62090;52.330;9.104;2023-04-25T00:54:34;21.80;;;6.63;;
3131;SDS011;62090;52.330;9.104;2023-04-25T00:57:04;14.53;;;7.13;;
3131;SDS011;62090;52.330;9.104;2023-04-25T00:59:33;24.20;;;7.00;;
3131;SDS011;62090;52.330;9.104;2023-04-25T01:02:05;23.17;;;7.43;;
3131;SDS011;62090;52.330;9.104;2023-04-25T01:04:35;26.63;;;7.77;;
3131;SDS011;62090;52.330;9.104;2023-04-25T01:07:08;30.43;;;7.80;;
3131;SDS011;62090;52.330;9.104;2023-04-25T01:09:39;17.27;;;6.70;;
3131;SDS011;62090;52.330;9.104;2023-04-25T01:12:08;19.70;;;7.87;;
3131;SDS011;62090;52.330;9.104;2023-04-25T01:14:39;26.03;;;8.13;;
3131;SDS011;62090;52.330;9.104;2023-04-25T01:17:09;24.83;;;7.87;;
3131;SDS011;62090;52.330;9.104;2023-04-25T01:19:39;23.80;;;8.67;;
3131;SDS011;62090;52.330;9.104;2023-04-25T01:22:11;20.60;;;7.83;;
3131;SDS011;62090;52.330;9.104;2023-04-25T01:24:41;23.63;;;9.57;;
3131;SDS011;62090;52.330;9.104;2023-04-25T01:27:11;24.27;;;8.70;;
3131;SDS011;62090;52.330;9.104;2023-04-25T01:29:41;27.27;;;9.07;;
3131;SDS011;62090;52.330;9.104;2023-04-25T01:32:12;24.77;;;8.57;;
3131;SDS011;62090;52.330;9.104;2023-04-25T01:34:43;30.27;;;9.63;;
3131;SDS011;62090;52.330;9.104;2023-04-25T01:37:15;24.70;;;8.87;;
3131;SDS011;62090;52.330;9.104;2023-04-25T01:39:46;27.40;;;9.63;;
3131;SDS011;62090;52.330;9.104;2023-04-25T01:42:16;19.60;;;9.17;;
3131;SDS011;62090;52.330;9.104;2023-04-25T01:44:48;22.90;;;9.40;;
3131;SDS011;62090;52.330;9.104;2023-04-25T01:47:17;21.57;;;10.37;;
3131;SDS011;62090;52.330;9.104;2023-04-25T01:49:47;18.33;;;9.47;;
3131;SDS011;62090;52.330;9.104;2023-04-25T01:52:20;25.03;;;8.20;;
3131;SDS011;62090;52.330;9.104;2023-04-25T01:54:50;18.10;;;8.00;;
3131;SDS011;62090;52.330;9.104;2023-04-25T01:57:22;26.40;;;7.07;;
3131;SDS011;62090;52.330;9.104;2023-04-25T01:59:52;26.63;;;6.50;;
3131;SDS011;62090;52.330;9.104;2023-04-25T02:02:39;27.87;;;5.60;;
3131;SDS011;62090;52.330;9.104;2023-04-25T02:05:22;21.30;;;5.80;;
3131;SDS011;62090;52.330;9.104;2023-04-25T02:07:54;16.10;;;5.67;;
3131;SDS011;62090;52.330;9.104;2023-04-25T02:10:26;21.63;;;5.43;;
3131;SDS011;62090;52.330;9.104;2023-04-25T02:13:12;23.53;;;6.17;;
3131;SDS011;62090;52.330;9.104;2023-04-25T02:16:09;26.17;;;6.67;;
3131;SDS011;62090;52.330;9.104;2023-04-25T02:18:39;21.37;;;5.83;;
3131;SDS011;62090;52.330;9.104;2023-04-25T02:21:09;25.77;;;6.77;;
3131;SDS011;62090;52.330;9.104;2023-04-25T02:23:41;27.07;;;6.17;;
3131;SDS011;62090;52.330;9.104;2023-04-25T02:26:15;29.10;;;6.67;;
3131;SDS011;62090;52.330;9.104;2023-04-25T02:28:45;26.40;;;5.73;;
3131;SDS011;62090;52.330;9.104;2023-04-25T02:31:15;36.60;;;5.70;;
3131;SDS011;62090;52.330;9.104;2023-04-25T02:33:44;22.07;;;5.47;;
3131;SDS011;62090;52.330;9.104;2023-04-25T02:36:15;22.33;;;5.60;;
3131;SDS011;62090;52.330;9.104;2023-04-25T02:38:47;28.67;;;6.00;;
3131;SDS011;62090;52.330;9.104;2023-04-25T02:41:19;38.37;;;7.13;;
3131;SDS011;62090;52.330;9.104;2023-04-25T02:43:49;38.20;;;6.60;;
3131;SDS011;62090;52.330;9.104;2023-04-25T02:46:19;28.60;;;5.77;;
3131;SDS011;62090;52.330;9.104;2023-04-25T02:49:04;37.00;;;7.50;;
3131;SDS011;62090;52.330;9.104;2023-04-25T02:51:35;26.30;;;6.20;;
3131;SDS011;62090;52.330;9.104;2023-04-25T02:54:07;28.93;;;6.20;;
3131;SDS011;62090;52.330;9.104;2023-04-25T02:56:41;29.83;;;6.50;;
3131;SDS011;62090;52.330;9.104;2023-04-25T02:59:16;39.03;;;5.60;;
3131;SDS011;62090;52.330;9.104;2023-04-25T03:01:46;37.10;;;7.37;;
3131;SDS011;62090;52.330;9.104;2023-04-25T03:04:16;22.80;;;5.27;;
3131;SDS011;62090;52.330;9.104;2023-04-25T03:06:46;30.87;;;6.27;;
3131;SDS011;62090;52.330;9.104;2023-04-25T03:09:22;32.27;;;7.20;;
3131;SDS011;62090;52.330;9.104;2023-04-25T03:11:52;33.50;;;6.23;;
3131;SDS011;62090;52.330;9.104;2023-04-25T03:14:22;33.67;;;5.40;;
3131;SDS011;62090;52.330;9.104;2023-04-25T03:16:52;39.93;;;7.83;;
3131;SDS011;62090;52.330;9.104;2023-04-25T03:19:22;29.53;;;6.27;;
3131;SDS011;62090;52.330;9.104;2023-04-25T03:21:52;27.87;;;6.43;;
3131;SDS011;62090;52.330;9.104;2023-04-25T03:24:24;28.00;;;5.90;;
3131;SDS011;62090;52.330;9.104;2023-04-25T03:26:54;30.00;;;6.73;;
3131;SDS011;62090;52.330;9.104;2023-04-25T03:29:24;34.30;;;6.63;;
3131;SDS011;62090;52.330;9.104;2023-04-25T03:31:55;28.87;;;6.37;;
3131;SDS011;62090;52.330;9.104;2023-04-25T03:34:25;33.37;;;6.60;;
3131;SDS011;62090;52.330;9.104;2023-04-25T03:36:56;27.33;;;6.23;;
3131;SDS011;62090;52.330;9.104;2023-04-25T03:39:29;35.37;;;5.87;;
3131;SDS011;62090;52.330;9.104;2023-04-25T03:41:59;28.77;;;6.83;;
3131;SDS011;62090;52.330;9.104;2023-04-25T03:44:32;25.50;;;5.97;;
3131;SDS011;62090;52.330;9.104;2023-04-25T03:47:02;27.17;;;5.30;;
3131;SDS011;62090;52.330;9.104;2023-04-25T03:49:33;30.17;;;6.37;;
3131;SDS011;62090;52.330;9.104;2023-04-25T03:52:05;31.90;;;6.57;;
3131;SDS011;62090;52.330;9.104;2023-04-25T03:54:40;36.50;;;6.93;;
3131;SDS011;62090;52.330;9.104;2023-04-25T03:57:14;36.87;;;6.43;;
3131;SDS011;62090;52.330;9.104;2023-04-25T03:59:44;32.03;;;6.57;;
3131;SDS011;62090;52.330;9.104;2023-04-25T04:02:14;37.00;;;7.30;;
3131;SDS011;62090;52.330;9.104;2023-04-25T04:04:45;43.00;;;6.90;;
3131;SDS011;62090;52.330;9.104;2023-04-25T04:07:15;25.37;;;6.40;;
3131;SDS011;62090;52.330;9.104;2023-04-25T04:09:51;30.60;;;6.67;;
3131;SDS011;62090;52.330;9.104;2023-04-25T04:12:29;30.63;;;6.60;;
3131;SDS011;62090;52.330;9.104;2023-04-25T04:15:01;34.73;;;5.90;;
3131;SDS011;62090;52.330;9.104;2023-04-25T04:17:32;31.00;;;6.27;;
3131;SDS011;62090;52.330;9.104;2023-04-25T04:20:03;34.17;;;6.20;;
3131;SDS011;62090;52.330;9.104;2023-04-25T04:22:35;34.20;;;6.50;;
3131;SDS011;62090;52.330;9.104;2023-04-25T04:25:11;35.43;;;5.97;;
3131;SDS011;62090;52.330;9.104;2023-04-25T04:28:03;30.73;;;6.93;;
3131;SDS011;62090;52.330;9.104;2023-04-25T04:30:42;34.83;;;6.33;;
3131;SDS011;62090;52.330;9.104;2023-04-25T04:33:13;43.83;;;7.87;;
3131;SDS011;62090;52.330;9.104;2023-04-25T04:35:48;28.57;;;5.83;;
3131;SDS011;62090;52.330;9.104;2023-04-25T04:38:20;24.70;;;5.63;;
3131;SDS011;62090;52.330;9.104;2023-04-25T04:40:54;30.17;;;5.73;;
3131;SDS011;62090;52.330;9.104;2023-04-25T04:43:32;40.93;;;6.50;;
3131;SDS011;62090;52.330;9.104;2023-04-25T04:46:20;37.50;;;7.40;;
3131;SDS011;62090;52.330;9.104;2023-04-25T04:49:17;32.13;;;5.37;;
3131;SDS011;62090;52.330;9.104;2023-04-25T04:52:09;38.73;;;6.40;;
3131;SDS011;62090;52.330;9.104;2023-04-25T04:55:01;39.73;;;7.63;;
3131;SDS011;62090;52.330;9.104;2023-04-25T04:57:50;16.40;;;5.33;;
3131;SDS011;62090;52.330;9.104;2023-04-25T05:00:32;29.70;;;6.60;;
3131;SDS011;62090;52.330;9.104;2023-04-25T05:03:20;29.17;;;6.80;;
3131;SDS011;62090;52.330;9.104;2023-04-25T05:06:03;26.53;;;6.10;;
3131;SDS011;62090;52.330;9.104;2023-04-25T05:08:51;20.33;;;6.23;;
3131;SDS011;62090;52.330;9.104;2023-04-25T05:11:30;32.63;;;6.23;;
3131;SDS011;62090;52.330;9.104;2023-04-25T05:14:15;30.37;;;6.67;;
3131;SDS011;62090;52.330;9.104;2023-04-25T05:17:15;21.33;;;5.47;;
3131;SDS011;62090;52.330;9.104;2023-04-25T05:20:04;24.27;;;7.47;;
3131;SDS011;62090;52.330;9.104;2023-04-25T05:23:00;28.00;;;6.20;;
3131;SDS011;62090;52.330;9.104;2023-04-25T05:25:40;23.80;;;5.17;;
3131;SDS011;62090;52.330;9.104;2023-04-25T05:28:28;24.50;;;6.07;;
3131;SDS011;62090;52.330;9.104;2023-04-25T05:31:30;34.07;;;6.20;;
3131;SDS011;62090;52.330;9.104;2023-04-25T05:34:04;25.10;;;6.17;;
3131;SDS011;62090;52.330;9.104;2023-04-25T05:36:50;30.60;;;5.90;;
3131;SDS011;62090;52.330;9.104;2023-04-25T05:39:19;24.30;;;5.17;;
3131;SDS011;62090;52.330;9.104;2023-04-25T05:42:14;24.23;;;6.43;;
3131;SDS011;62090;52.330;9.104;2023-04-25T05:45:07;22.27;;;4.90;;
3131;SDS011;62090;52.330;9.104;2023-04-25T05:48:09;34.60;;;7.20;;
3131;SDS011;62090;52.330;9.104;2023-04-25T05:50:55;33.10;;;6.30;;
3131;SDS011;62090;52.330;9.104;2023-04-25T05:53:42;28.33;;;5.90;;
3131;SDS011;62090;52.330;9.104;2023-04-25T05:56:13;27.27;;;6.07;;
3131;SDS011;62090;52.330;9.104;2023-04-25T05:58:45;29.43;;;5.93;;
3131;SDS011;62090;52.330;9.104;2023-04-25T06:01:15;29.23;;;5.80;;
3131;SDS011;62090;52.330;9.104;2023-04-25T06:03:47;31.07;;;5.90;;
3131;SDS011;62090;52.330;9.104;2023-04-25T06:06:18;31.37;;;6.50;;
3131;SDS011;62090;52.330;9.104;2023-04-25T06:08:48;24.80;;;5.83;;
3131;SDS011;62090;52.330;9.104;2023-04-25T06:11:18;27.30;;;5.63;;
3131;SDS011;62090;52.330;9.104;2023-04-25T06:13:48;26.33;;;6.27;;
3131;SDS011;62090;52.330;9.104;2023-04-25T06:16:18;30.50;;;5.83;;
3131;SDS011;62090;52.330;9.104;2023-04-25T06:18:51;27.87;;;5.70;;
3131;SDS011;62090;52.330;9.104;2023-04-25T06:21:21;27.67;;;5.63;;
3131;SDS011;62090;52.330;9.104;2023-04-25T06:23:50;37.43;;;5.93;;
3131;SDS011;62090;52.330;9.104;2023-04-25T06:26:22;27.63;;;4.70;;
3131;SDS011;62090;52.330;9.104;2023-04-25T06:28:52;23.40;;;4.83;;
3131;SDS011;62090;52.330;9.104;2023-04-25T06:31:22;23.20;;;5.43;;
3131;SDS011;62090;52.330;9.104;2023-04-25T06:33:56;19.83;;;5.47;;
3131;SDS011;62090;52.330;9.104;2023-04-25T06:36:28;17.77;;;5.10;;
3131;SDS011;62090;52.330;9.104;2023-04-25T06:39:05;22.73;;;5.50;;
3131;SDS011;62090;52.330;9.104;2023-04-25T06:41:35;16.33;;;4.83;;
3131;SDS011;62090;52.330;9.104;2023-04-25T06:44:08;32.30;;;5.70;;
3131;SDS011;62090;52.330;9.104;2023-04-25T06:46:48;21.67;;;5.03;;
3131;SDS011;62090;52.330;9.104;2023-04-25T06:49:21;22.40;;;4.70;;
3131;SDS011;62090;52.330;9.104;2023-04-25T06:51:51;23.67;;;5.57;;
3131;SDS011;62090;52.330;9.104;2023-04-25T06:54:20;30.33;;;4.90;;
3131;SDS011;62090;52.330;9.104;2023-04-25T06:56:59;24.20;;;5.03;;
3131;SDS011;62090;52.330;9.104;2023-04-25T06:59:31;25.33;;;5.17;;
3131;SDS011;62090;52.330;9.104;2023-04-25T07:02:02;23.63;;;4.33;;
3131;SDS011;62090;52.330;9.104;2023-04-25T07:04:35;19.53;;;4.30;;
3131;SDS011;62090;52.330;9.104;2023-04-25T07:07:05;15.37;;;3.57;;
3131;SDS011;62090;52.330;9.104;2023-04-25T07:09:45;24.20;;;4.27;;
3131;SDS011;62090;52.330;9.104;2023-04-25T07:12:14;25.10;;;3.83;;
3131;SDS011;62090;52.330;9.104;2023-04-25T07:14:44;21.93;;;4.13;;
3131;SDS011;62090;52.330;9.104;2023-04-25T07:17:14;17.93;;;3.53;;
3131;SDS011;62090;52.330;9.104;2023-04-25T07:19:47;16.23;;;3.93;;
3131;SDS011;62090;52.330;9.104;2023-04-25T07:22:18;16.50;;;3.10;;
3131;SDS011;62090;52.330;9.104;2023-04-25T07:24:48;25.50;;;4.33;;
3131;SDS011;62090;52.330;9.104;2023-04-25T07:27:21;24.73;;;4.63;;
3131;SDS011;62090;52.330;9.104;2023-04-25T07:29:55;14.20;;;3.27;;
3131;SDS011;62090;52.330;9.104;2023-04-25T07:32:26;18.10;;;4.33;;
3131;SDS011;62090;52.330;9.104;2023-04-25T07:34:58;15.20;;;3.27;;
3131;SDS011;62090;52.330;9.104;2023-04-25T07:37:29;18.30;;;3.93;;
3131;SDS011;62090;52.330;9.104;2023-04-25T07:40:09;23.60;;;3.80;;
3131;SDS011;62090;52.330;9.104;2023-04-25T07:42:45;18.07;;;3.60;;
3131;SDS011;62090;52.330;9.104;2023-04-25T07:45:20;16.00;;;3.53;;
3131;SDS011;62090;52.330;9.104;2023-04-25T07:47:51;19.50;;;3.77;;
3131;SDS011;62090;52.330;9.104;2023-04-25T07:50:24;17.07;;;4.07;;
3131;SDS011;62090;52.330;9.104;2023-04-25T07:52:54;19.40;;;4.77;;
3131;SDS011;62090;52.330;9.104;2023-04-25T07:55:32;19.30;;;4.90;;
3131;SDS011;62090;52.330;9.104;2023-04-25T07:58:11;20.30;;;3.83;;
3131;SDS011;62090;52.330;9.104;2023-04-25T08:00:45;15.17;;;4.10;;
3131;SDS011;62090;52.330;9.104;2023-04-25T08:03:28;21.97;;;3.97;;
3131;SDS011;62090;52.330;9.104;2023-04-25T08:06:02;16.60;;;3.27;;
3131;SDS011;62090;52.330;9.104;2023-04-25T08:08:41;21.33;;;3.90;;
3131;SDS011;62090;52.330;9.104;2023-04-25T08:11:15;27.57;;;3.97;;
3131;SDS011;62090;52.330;9.104;2023-04-25T08:13:45;18.53;;;3.47;;
3131;SDS011;62090;52.330;9.104;2023-04-25T08:16:15;15.37;;;3.70;;
3131;SDS011;62090;52.330;9.104;2023-04-25T08:18:45;15.27;;;2.93;;
3131;SDS011;62090;52.330;9.104;2023-04-25T08:21:18;20.03;;;3.63;;
3131;SDS011;62090;52.330;9.104;2023-04-25T08:23:48;19.83;;;3.87;;
3131;SDS011;62090;52.330;9.104;2023-04-25T08:26:23;8.37;;;2.70;;
3131;SDS011;62090;52.330;9.104;2023-04-25T08:28:53;14.33;;;2.73;;
3131;SDS011;62090;52.330;9.104;2023-04-25T08:31:23;21.97;;;3.10;;
3131;SDS011;62090;52.330;9.104;2023-04-25T08:33:57;22.63;;;3.70;;
3131;SDS011;62090;52.330;9.104;2023-04-25T08:36:56;17.20;;;3.10;;
3131;SDS011;62090;52.330;9.104;2023-04-25T08:39:37;17.67;;;3.87;;
3131;SDS011;62090;52.330;9.104;2023-04-25T08:42:23;23.97;;;4.17;;
3131;SDS011;62090;52.330;9.104;2023-04-25T08:44:53;10.40;;;2.77;;
3131;SDS011;62090;52.330;9.104;2023-04-25T08:47:29;16.90;;;2.93;;
3131;SDS011;62090;52.330;9.104;2023-04-25T08:49:59;12.93;;;3.20;;
3131;SDS011;62090;52.330;9.104;2023-04-25T08:52:35;19.50;;;3.43;;
3131;SDS011;62090;52.330;9.104;2023-04-25T08:55:07;16.23;;;3.27;;
3131;SDS011;62090;52.330;9.104;2023-04-25T08:57:38;12.20;;;2.50;;
3131;SDS011;62090;52.330;9.104;2023-04-25T09:00:10;18.10;;;3.57;;
3131;SDS011;62090;52.330;9.104;2023-04-25T09:02:43;14.30;;;3.63;;
3131;SDS011;62090;52.330;9.104;2023-04-25T09:05:13;21.70;;;3.23;;
3131;SDS011;62090;52.330;9.104;2023-04-25T09:07:49;15.07;;;2.70;;
3131;SDS011;62090;52.330;9.104;2023-04-25T09:10:19;14.80;;;2.07;;
3131;SDS011;62090;52.330;9.104;2023-04-25T09:13:01;12.57;;;2.73;;
3131;SDS011;62090;52.330;9.104;2023-04-25T09:15:49;11.73;;;2.10;;
3131;SDS011;62090;52.330;9.104;2023-04-25T09:18:33;13.97;;;2.33;;
3131;SDS011;62090;52.330;9.104;2023-04-25T09:21:05;13.70;;;4.07;;
3131;SDS011;62090;52.330;9.104;2023-04-25T09:23:45;14.90;;;2.77;;
3131;SDS011;62090;52.330;9.104;2023-04-25T09:26:17;15.37;;;2.40;;
3131;SDS011;62090;52.330;9.104;2023-04-25T09:28:49;15.23;;;2.57;;
3131;SDS011;62090;52.330;9.104;2023-04-25T09:31:36;13.13;;;2.70;;
3131;SDS011;62090;52.330;9.104;2023-04-25T09:34:08;11.23;;;2.60;;
3131;SDS011;62090;52.330;9.104;2023-04-25T09:36:47;11.63;;;2.50;;
3131;SDS011;62090;52.330;9.104;2023-04-25T09:39:58;7.93;;;2.17;;
3131;SDS011;62090;52.330;9.104;2023-04-25T09:42:31;11.67;;;2.60;;
3131;SDS011;62090;52.330;9.104;2023-04-25T09:45:02;33.73;;;3.50;;
3131;SDS011;62090;52.330;9.104;2023-04-25T09:47:38;6.30;;;1.70;;
3131;SDS011;62090;52.330;9.104;2023-04-25T09:50:15;19.03;;;2.40;;
3131;SDS011;62090;52.330;9.104;2023-04-25T09:53:02;62.60;;;6.60;;
3131;SDS011;62090;52.330;9.104;2023-04-25T09:56:04;11.80;;;2.23;;
3131;SDS011;62090;52.330;9.104;2023-04-25T09:58:36;13.17;;;2.97;;
3131;SDS011;62090;52.330;9.104;2023-04-25T10:01:07;11.63;;;2.63;;
3131;SDS011;62090;52.330;9.104;2023-04-25T10:03:52;9.23;;;2.43;;
3131;SDS011;62090;52.330;9.104;2023-04-25T10:06:38;14.13;;;3.20;;
3131;SDS011;62090;52.330;9.104;2023-04-25T10:09:14;6.17;;;2.10;;
3131;SDS011;62090;52.330;9.104;2023-04-25T10:11:48;15.13;;;2.40;;
3131;SDS011;62090;52.330;9.104;2023-04-25T10:14:18;6.90;;;2.33;;
3131;SDS011;62090;52.330;9.104;2023-04-25T10:16:48;8.97;;;2.23;;
3131;SDS011;62090;52.330;9.104;2023-04-25T10:19:20;13.80;;;3.20;;
3131;SDS011;62090;52.330;9.104;2023-04-25T10:21:52;6.10;;;1.80;;
3131;SDS011;62090;52.330;9.104;2023-04-25T10:24:25;10.30;;;2.60;;
3131;SDS011;62090;52.330;9.104;2023-04-25T10:26:58;10.00;;;2.60;;
3131;SDS011;62090;52.330;9.104;2023-04-25T10:29:29;11.93;;;2.43;;
3131;SDS011;62090;52.330;9.104;2023-04-25T10:31:59;13.73;;;3.07;;
3131;SDS011;62090;52.330;9.104;2023-04-25T10:34:38;13.30;;;2.40;;
3131;SDS011;62090;52.330;9.104;2023-04-25T10:37:09;12.10;;;2.90;;
3131;SDS011;62090;52.330;9.104;2023-04-25T10:39:40;9.43;;;2.07;;
3131;SDS011;62090;52.330;9.104;2023-04-25T10:42:14;24.27;;;3.07;;
3131;SDS011;62090;52.330;9.104;2023-04-25T10:45:00;7.50;;;1.97;;
3131;SDS011;62090;52.330;9.104;2023-04-25T10:47:34;8.20;;;1.90;;
3131;SDS011;62090;52.330;9.104;2023-04-25T10:50:05;11.03;;;2.23;;
3131;SDS011;62090;52.330;9.104;2023-04-25T10:52:38;17.97;;;2.67;;
3131;SDS011;62090;52.330;9.104;2023-04-25T10:55:08;12.93;;;2.10;;
3131;SDS011;62090;52.330;9.104;2023-04-25T10:57:41;7.80;;;2.10;;
3131;SDS011;62090;52.330;9.104;2023-04-25T11:00:14;11.77;;;3.50;;
3131;SDS011;62090;52.330;9.104;2023-04-25T11:02:46;8.30;;;2.40;;
3131;SDS011;62090;52.330;9.104;2023-04-25T11:05:22;14.20;;;2.17;;
3131;SDS011;62090;52.330;9.104;2023-04-25T11:07:56;6.70;;;1.80;;
3131;SDS011;62090;52.330;9.104;2023-04-25T11:10:34;4.50;;;1.53;;
3131;SDS011;62090;52.330;9.104;2023-04-25T11:13:07;5.77;;;1.70;;
3131;SDS011;62090;52.330;9.104;2023-04-25T11:15:36;10.53;;;2.67;;
3131;SDS011;62090;52.330;9.104;2023-04-25T11:18:06;8.77;;;1.87;;
3131;SDS011;62090;52.330;9.104;2023-04-25T11:20:36;10.27;;;1.57;;
3131;SDS011;62090;52.330;9.104;2023-04-25T11:23:06;10.80;;;2.13;;
3131;SDS011;62090;52.330;9.104;2023-04-25T11:25:37;4.80;;;1.70;;
3131;SDS011;62090;52.330;9.104;2023-04-25T11:28:10;6.57;;;1.80;;
3131;SDS011;62090;52.330;9.104;2023-04-25T11:30:40;4.43;;;1.60;;
3131;SDS011;62090;52.330;9.104;2023-04-25T11:33:17;3.10;;;1.47;;
3131;SDS011;62090;52.330;9.104;2023-04-25T11:35:52;7.13;;;1.90;;
3131;SDS011;62090;52.330;9.104;2023-04-25T11:38:24;5.90;;;1.33;;
3131;SDS011;62090;52.330;9.104;2023-04-25T11:40:55;5.53;;;1.50;;
3131;SDS011;62090;52.330;9.104;2023-04-25T11:43:27;9.40;;;1.90;;
3131;SDS011;62090;52.330;9.104;2023-04-25T11:45:58;6.70;;;1.53;;
3131;SDS011;62090;52.330;9.104;2023-04-25T11:48:27;5.73;;;1.47;;
3131;SDS011;62090;52.330;9.104;2023-04-25T11:51:06;15.10;;;2.20;;
3131;SDS011;62090;52.330;9.104;2023-04-25T11:53:38;8.43;;;1.73;;
3131;SDS011;62090;52.330;9.104;2023-04-25T11:56:10;7.10;;;1.93;;
3131;SDS011;62090;52.330;9.104;2023-04-25T12:01:30;5.87;;;1.90;;
3131;SDS011;62090;52.330;9.104;2023-04-25T12:04:11;10.47;;;2.53;;
3131;SDS011;62090;52.330;9.104;2023-04-25T12:06:43;7.80;;;1.90;;
3131;SDS011;62090;52.330;9.104;2023-04-25T12:09:16;7.47;;;1.70;;
3131;SDS011;62090;52.330;9.104;2023-04-25T12:11:48;11.93;;;2.50;;
3131;SDS011;62090;52.330;9.104;2023-04-25T12:14:25;7.60;;;2.03;;
3131;SDS011;62090;52.330;9.104;2023-04-25T12:16:57;8.47;;;1.77;;
3131;SDS011;62090;52.330;9.104;2023-04-25T12:19:31;7.87;;;1.57;;
3131;SDS011;62090;52.330;9.104;2023-04-25T12:22:03;4.83;;;1.77;;
3131;SDS011;62090;52.330;9.104;2023-04-25T12:24:47;2.60;;;1.23;;
3131;SDS011;62090;52.330;9.104;2023-04-25T12:27:19;7.30;;;1.60;;
3131;SDS011;62090;52.330;9.104;2023-04-25T12:29:53;9.27;;;2.00;;
3131;SDS011;62090;52.330;9.104;2023-04-25T12:32:23;4.83;;;1.33;;
3131;SDS011;62090;52.330;9.104;2023-04-25T12:34:53;7.50;;;1.40;;
3131;SDS011;62090;52.330;9.104;2023-04-25T12:37:23;7.07;;;2.03;;
3131;SDS011;62090;52.330;9.104;2023-04-25T12:39:53;8.33;;;1.90;;
3131;SDS011;62090;52.330;9.104;2023-04-25T12:42:23;6.50;;;1.40;;
3131;SDS011;62090;52.330;9.104;2023-04-25T12:44:55;5.57;;;1.73;;
3131;SDS011;62090;52.330;9.104;2023-04-25T12:47:25;6.13;;;2.17;;
3131;SDS011;62090;52.330;9.104;2023-04-25T12:49:55;5.23;;;1.80;;
3131;SDS011;62090;52.330;9.104;2023-04-25T12:52:24;3.90;;;1.43;;
3131;SDS011;62090;52.330;9.104;2023-04-25T12:54:54;6.20;;;1.70;;
3131;SDS011;62090;52.330;9.104;2023-04-25T12:57:24;4.90;;;1.80;;
3131;SDS011;62090;52.330;9.104;2023-04-25T12:59:56;5.13;;;1.80;;
3131;SDS011;62090;52.330;9.104;2023-04-25T13:02:27;6.93;;;2.03;;
3131;SDS011;62090;52.330;9.104;2023-04-25T13:04:57;4.90;;;1.20;;
3131;SDS011;62090;52.330;9.104;2023-04-25T13:07:26;6.10;;;1.43;;
3131;SDS011;62090;52.330;9.104;2023-04-25T13:09:58;7.47;;;1.63;;
3131;SDS011;62090;52.330;9.104;2023-04-25T13:12:29;10.87;;;2.70;;
3131;SDS011;62090;52.330;9.104;2023-04-25T13:15:01;6.03;;;1.57;;
3131;SDS011;62090;52.330;9.104;2023-04-25T13:17:31;4.03;;;1.40;;
3131;SDS011;62090;52.330;9.104;2023-04-25T13:20:01;6.00;;;1.50;;
3131;SDS011;62090;52.330;9.104;2023-04-25T13:22:35;6.07;;;1.70;;
3131;SDS011;62090;52.330;9.104;2023-04-25T13:25:06;12.13;;;1.80;;
3131;SDS011;62090;52.330;9.104;2023-04-25T13:27:37;6.60;;;1.70;;
3131;SDS011;62090;52.330;9.104;2023-04-25T13:30:10;6.87;;;1.80;;
3131;SDS011;62090;52.330;9.104;2023-04-25T13:32:40;10.23;;;2.03;;
3131;SDS011;62090;52.330;9.104;2023-04-25T13:35:11;10.73;;;2.00;;
3131;SDS011;62090;52.330;9.104;2023-04-25T13:37:41;7.07;;;1.73;;
3131;SDS011;62090;52.330;9.104;2023-04-25T13:40:11;9.43;;;2.03;;
3131;SDS011;62090;52.330;9.104;2023-04-25T13:42:42;5.50;;;1.50;;
3131;SDS011;62090;52.330;9.104;2023-04-25T13:45:15;8.43;;;1.60;;
3131;SDS011;62090;52.330;9.104;2023-04-25T13:47:44;4.57;;;1.40;;
3131;SDS011;62090;52.330;9.104;2023-04-25T13:50:14;8.60;;;2.23;;
3131;SDS011;62090;52.330;9.104;2023-04-25T13:52:44;5.33;;;1.77;;
3131;SDS011;62090;52.330;9.104;2023-04-25T13:55:14;5.17;;;1.67;;
3131;SDS011;62090;52.330;9.104;2023-04-25T13:57:44;8.40;;;1.83;;
3131;SDS011;62090;52.330;9.104;2023-04-25T14:00:17;8.20;;;1.77;;
3131;SDS011;62090;52.330;9.104;2023-04-25T14:02:48;6.07;;;2.43;;
3131;SDS011;62090;52.330;9.104;2023-04-25T14:05:17;15.63;;;2.50;;
3131;SDS011;62090;52.330;9.104;2023-04-25T14:07:47;6.23;;;1.67;;
3131;SDS011;62090;52.330;9.104;2023-04-25T14:10:17;4.17;;;1.47;;
3131;SDS011;62090;52.330;9.104;2023-04-25T14:12:47;7.97;;;1.67;;
3131;SDS011;62090;52.330;9.104;2023-04-25T14:15:19;11.80;;;1.87;;
3131;SDS011;62090;52.330;9.104;2023-04-25T14:17:49;5.27;;;1.33;;
3131;SDS011;62090;52.330;9.104;2023-04-25T14:20:19;4.80;;;1.10;;
3131;SDS011;62090;52.330;9.104;2023-04-25T14:22:50;4.00;;;1.23;;
3131;SDS011;62090;52.330;9.104;2023-04-25T14:25:21;5.20;;;2.00;;
3131;SDS011;62090;52.330;9.104;2023-04-25T14:27:50;7.00;;;1.23;;
3131;SDS011;62090;52.330;9.104;2023-04-25T14:30:23;8.43;;;1.30;;
3131;SDS011;62090;52.330;9.104;2023-04-25T14:32:53;5.13;;;1.40;;
3131;SDS011;62090;52.330;9.104;2023-04-25T14:35:23;4.97;;;2.00;;
3131;SDS011;62090;52.330;9.104;2023-04-25T14:37:53;7.83;;;1.17;;
3131;SDS011;62090;52.330;9.104;2023-04-25T14:40:23;6.33;;;1.67;;
3131;SDS011;62090;52.330;9.104;2023-04-25T14:42:53;2.90;;;1.20;;
3131;SDS011;62090;52.330;9.104;2023-04-25T14:45:26;10.23;;;1.53;;
3131;SDS011;62090;52.330;9.104;2023-04-25T14:47:56;7.40;;;1.33;;
3131;SDS011;62090;52.330;9.104;2023-04-25T14:50:26;4.30;;;1.03;;
3131;SDS011;62090;52.330;9.104;2023-04-25T14:52:56;4.03;;;1.40;;
3131;SDS011;62090;52.330;9.104;2023-04-25T14:55:27;4.90;;;1.70;;
3131;SDS011;62090;52.330;9.104;2023-04-25T14:57:57;7.57;;;2.47;;
3131;SDS011;62090;52.330;9.104;2023-04-25T15:00:30;9.40;;;1.53;;
3131;SDS011;62090;52.330;9.104;2023-04-25T15:03:00;4.53;;;1.87;;
3131;SDS011;62090;52.330;9.104;2023-04-25T15:05:30;6.97;;;1.37;;
3131;SDS011;62090;52.330;9.104;2023-04-25T15:08:00;7.13;;;1.63;;
3131;SDS011;62090;52.330;9.104;2023-04-25T15:10:31;3.60;;;1.60;;
3131;SDS011;62090;52.330;9.104;2023-04-25T15:13:01;4.20;;;1.23;;
3131;SDS011;62090;52.330;9.104;2023-04-25T15:15:34;3.63;;;1.13;;
3131;SDS011;62090;52.330;9.104;2023-04-25T15:18:04;6.03;;;1.23;;
3131;SDS011;62090;52.330;9.104;2023-04-25T15:20:34;4.13;;;1.30;;
3131;SDS011;62090;52.330;9.104;2023-04-25T15:23:04;9.33;;;1.47;;
3131;SDS011;62090;52.330;9.104;2023-04-25T15:25:34;5.57;;;1.67;;
3131;SDS011;62090;52.330;9.104;2023-04-25T15:28:03;3.63;;;1.23;;
3131;SDS011;62090;52.330;9.104;2023-04-25T15:30:36;5.30;;;1.40;;
3131;SDS011;62090;52.330;9.104;2023-04-25T15:33:06;4.87;;;1.60;;